sensor_id;sensor_type;location;lat;lon;timestamp;temperature;humidity
41985;DHT22;28319;48.116;10.818;2022-12-24T00:02:40;10.60;99.90
41985;DHT22;28319;48.116;10.818;2022-12-24T00:07:42;10.60;99.90
41985;DHT22;28319;48.116;10.818;2022-12-24T00:12:44;10.60;99.90
41985;DHT22;28319;48.116;10.818;2022-12-24T00:17:48;10.50;99.90
41985;DHT22;28319;48.116;10.818;2022-12-24T00:22:50;10.50;99.90
41985;DHT22;28319;48.116;10.818;2022-12-24T00:27:52;10.40;99.90
41985;DHT22;28319;48.116;10.818;2022-12-24T00:32:56;10.40;99.90
41985;DHT22;28319;48.116;10.818;2022-12-24T00:37:58;10.30;99.90
41985;DHT22;28319;48.116;10.818;2022-12-24T00:43:00;10.30;99.90
41985;DHT22;28319;48.116;10.818;2022-12-24T00:48:04;10.30;99.90
41985;DHT22;28319;48.116;10.818;2022-12-24T00:53:06;10.30;99.90
41985;DHT22;28319;48.116;10.818;2022-12-24T00:58:08;10.30;99.90
41985;DHT22;28319;48.116;10.818;2022-12-24T01:03:12;10.30;99.90
41985;DHT22;28319;48.116;10.818;2022-12-24T01:08:14;10.20;99.90
41985;DHT22;28319;48.116;10.818;2022-12-24T01:13:16;10.20;99.90
41985;DHT22;28319;48.116;10.818;2022-12-24T02:05:46;10.00;99.90
41985;DHT22;28319;48.116;10.818;2022-12-24T02:10:49;10.00;99.90
41985;DHT22;28319;48.116;10.818;2022-12-24T02:15:58;10.00;99.90
41985;DHT22;28319;48.116;10.818;2022-12-24T02:32:23;9.90;99.90
41985;DHT22;28319;48.116;10.818;2022-12-24T02:37:30;9.90;99.90
41985;DHT22;28319;48.116;10.818;2022-12-24T02:42:36;9.90;99.90
41985;DHT22;28319;48.116;10.818;2022-12-24T02:47:43;9.80;99.90
41985;DHT22;28319;48.116;10.818;2022-12-24T02:52:46;9.80;99.90
41985;DHT22;28319;48.116;10.818;2022-12-24T02:58:05;9.80;99.90
41985;DHT22;28319;48.116;10.818;2022-12-24T03:03:23;9.80;99.90
41985;DHT22;28319;48.116;10.818;2022-12-24T03:08:35;9.80;99.90
41985;DHT22;28319;48.116;10.818;2022-12-24T03:13:43;9.80;99.90
41985;DHT22;28319;48.116;10.818;2022-12-24T03:18:49;9.70;99.90
41985;DHT22;28319;48.116;10.818;2022-12-24T03:23:52;9.60;99.90
41985;DHT22;28319;48.116;10.818;2022-12-24T03:28:55;9.60;99.90
41985;DHT22;28319;48.116;10.818;2022-12-24T03:33:58;9.60;99.90
41985;DHT22;28319;48.116;10.818;2022-12-24T03:39:01;9.60;99.90
41985;DHT22;28319;48.116;10.818;2022-12-24T03:44:03;9.60;99.90
41985;DHT22;28319;48.116;10.818;2022-12-24T03:49:07;9.60;99.90
41985;DHT22;28319;48.116;10.818;2022-12-24T03:54:09;9.60;99.90
41985;DHT22;28319;48.116;10.818;2022-12-24T03:59:11;9.60;99.90
41985;DHT22;28319;48.116;10.818;2022-12-24T04:04:14;9.60;99.90
41985;DHT22;28319;48.116;10.818;2022-12-24T04:09:17;9.60;99.90
41985;DHT22;28319;48.116;10.818;2022-12-24T04:14:19;9.60;99.90
41985;DHT22;28319;48.116;10.818;2022-12-24T04:19:22;9.60;99.90
41985;DHT22;28319;48.116;10.818;2022-12-24T04:24:24;9.60;99.90
41985;DHT22;28319;48.116;10.818;2022-12-24T04:29:26;9.60;99.90
41985;DHT22;28319;48.116;10.818;2022-12-24T04:34:30;9.60;99.90
41985;DHT22;28319;48.116;10.818;2022-12-24T04:39:32;9.60;99.90
41985;DHT22;28319;48.116;10.818;2022-12-24T04:44:34;9.50;99.90
41985;DHT22;28319;48.116;10.818;2022-12-24T04:49:37;9.50;99.90
41985;DHT22;28319;48.116;10.818;2022-12-24T04:54:40;9.50;99.90
41985;DHT22;28319;48.116;10.818;2022-12-24T04:59:42;9.50;99.90
41985;DHT22;28319;48.116;10.818;2022-12-24T05:04:45;9.40;99.90
41985;DHT22;28319;48.116;10.818;2022-12-24T05:09:47;9.40;99.90
41985;DHT22;28319;48.116;10.818;2022-12-24T05:14:49;9.40;99.90
41985;DHT22;28319;48.116;10.818;2022-12-24T05:19:53;9.40;99.90
41985;DHT22;28319;48.116;10.818;2022-12-24T05:24:55;9.40;99.90
41985;DHT22;28319;48.116;10.818;2022-12-24T05:30:14;9.40;99.90
41985;DHT22;28319;48.116;10.818;2022-12-24T05:35:18;9.40;99.90
41985;DHT22;28319;48.116;10.818;2022-12-24T05:40:20;9.40;99.90
41985;DHT22;28319;48.116;10.818;2022-12-24T05:45:22;9.30;99.90
41985;DHT22;28319;48.116;10.818;2022-12-24T05:50:26;9.30;99.90
41985;DHT22;28319;48.116;10.818;2022-12-24T05:55:28;9.20;99.90
41985;DHT22;28319;48.116;10.818;2022-12-24T06:00:30;9.30;99.90
41985;DHT22;28319;48.116;10.818;2022-12-24T06:05:34;9.20;99.90
41985;DHT22;28319;48.116;10.818;2022-12-24T06:10:36;9.20;99.90
41985;DHT22;28319;48.116;10.818;2022-12-24T06:15:38;9.20;99.90
41985;DHT22;28319;48.116;10.818;2022-12-24T06:20:41;9.20;99.90
41985;DHT22;28319;48.116;10.818;2022-12-24T06:25:43;9.20;99.90
41985;DHT22;28319;48.116;10.818;2022-12-24T06:30:46;9.20;99.90
41985;DHT22;28319;48.116;10.818;2022-12-24T06:35:50;9.20;99.90
41985;DHT22;28319;48.116;10.818;2022-12-24T06:40:52;9.10;99.90
41985;DHT22;28319;48.116;10.818;2022-12-24T06:45:55;9.10;99.90
41985;DHT22;28319;48.116;10.818;2022-12-24T06:51:00;9.10;99.90
41985;DHT22;28319;48.116;10.818;2022-12-24T06:56:03;9.20;99.90
41985;DHT22;28319;48.116;10.818;2022-12-24T07:01:08;9.10;99.90
41985;DHT22;28319;48.116;10.818;2022-12-24T07:06:16;9.10;99.90
41985;DHT22;28319;48.116;10.818;2022-12-24T07:11:19;9.00;99.90
41985;DHT22;28319;48.116;10.818;2022-12-24T07:16:21;9.00;99.90
41985;DHT22;28319;48.116;10.818;2022-12-24T07:21:25;9.00;99.90
41985;DHT22;28319;48.116;10.818;2022-12-24T07:26:27;9.00;99.90
41985;DHT22;28319;48.116;10.818;2022-12-24T07:31:29;8.90;99.90
41985;DHT22;28319;48.116;10.818;2022-12-24T07:36:33;8.90;99.90
41985;DHT22;28319;48.116;10.818;2022-12-24T07:41:35;8.90;99.90
41985;DHT22;28319;48.116;10.818;2022-12-24T07:46:37;8.90;99.90
41985;DHT22;28319;48.116;10.818;2022-12-24T07:51:40;8.90;99.90
41985;DHT22;28319;48.116;10.818;2022-12-24T07:56:42;8.90;99.90
41985;DHT22;28319;48.116;10.818;2022-12-24T08:01:45;9.00;99.90
41985;DHT22;28319;48.116;10.818;2022-12-24T08:06:48;9.00;99.90
41985;DHT22;28319;48.116;10.818;2022-12-24T08:11:50;8.90;99.90
41985;DHT22;28319;48.116;10.818;2022-12-24T08:16:52;8.90;99.90
41985;DHT22;28319;48.116;10.818;2022-12-24T08:21:56;8.90;99.90
41985;DHT22;28319;48.116;10.818;2022-12-24T08:26:58;8.90;99.90
41985;DHT22;28319;48.116;10.818;2022-12-24T08:32:00;8.90;99.90
41985;DHT22;28319;48.116;10.818;2022-12-24T08:37:04;8.80;99.90
41985;DHT22;28319;48.116;10.818;2022-12-24T08:42:06;8.80;99.90
41985;DHT22;28319;48.116;10.818;2022-12-24T08:47:08;8.80;99.90
41985;DHT22;28319;48.116;10.818;2022-12-24T08:52:11;8.80;99.90
41985;DHT22;28319;48.116;10.818;2022-12-24T08:57:13;8.70;99.90
41985;DHT22;28319;48.116;10.818;2022-12-24T09:02:16;8.70;99.90
41985;DHT22;28319;48.116;10.818;2022-12-24T09:07:19;8.70;99.90
41985;DHT22;28319;48.116;10.818;2022-12-24T09:12:21;8.70;99.90
41985;DHT22;28319;48.116;10.818;2022-12-24T09:17:24;8.70;99.90
41985;DHT22;28319;48.116;10.818;2022-12-24T09:22:27;8.70;99.90
41985;DHT22;28319;48.116;10.818;2022-12-24T09:27:29;8.70;99.90
41985;DHT22;28319;48.116;10.818;2022-12-24T09:32:31;8.70;99.90
41985;DHT22;28319;48.116;10.818;2022-12-24T09:37:36;8.60;99.90
41985;DHT22;28319;48.116;10.818;2022-12-24T09:42:43;8.60;99.90
41985;DHT22;28319;48.116;10.818;2022-12-24T09:47:51;8.60;99.90
41985;DHT22;28319;48.116;10.818;2022-12-24T09:52:59;8.60;99.90
41985;DHT22;28319;48.116;10.818;2022-12-24T09:58:04;8.70;99.90
41985;DHT22;28319;48.116;10.818;2022-12-24T10:03:13;8.70;99.90
41985;DHT22;28319;48.116;10.818;2022-12-24T10:08:22;8.60;99.90
41985;DHT22;28319;48.116;10.818;2022-12-24T10:13:38;8.70;99.90
41985;DHT22;28319;48.116;10.818;2022-12-24T10:18:49;8.70;99.90
41985;DHT22;28319;48.116;10.818;2022-12-24T10:24:00;8.70;99.90
41985;DHT22;28319;48.116;10.818;2022-12-24T10:29:12;8.70;99.90
41985;DHT22;28319;48.116;10.818;2022-12-24T10:34:20;8.70;99.90
41985;DHT22;28319;48.116;10.818;2022-12-24T10:39:25;8.70;99.90
41985;DHT22;28319;48.116;10.818;2022-12-24T10:44:30;8.80;99.90
41985;DHT22;28319;48.116;10.818;2022-12-24T10:49:36;8.80;99.90
41985;DHT22;28319;48.116;10.818;2022-12-24T10:55:07;9.30;99.90
41985;DHT22;28319;48.116;10.818;2022-12-24T11:00:18;9.60;99.90
41985;DHT22;28319;48.116;10.818;2022-12-24T11:05:29;9.90;99.90
41985;DHT22;28319;48.116;10.818;2022-12-24T11:10:35;10.20;99.90
41985;DHT22;28319;48.116;10.818;2022-12-24T11:15:37;10.00;99.90
41985;DHT22;28319;48.116;10.818;2022-12-24T11:20:48;9.60;99.90
41985;DHT22;28319;48.116;10.818;2022-12-24T11:25:54;9.40;99.90
41985;DHT22;28319;48.116;10.818;2022-12-24T11:31:00;9.40;99.90
41985;DHT22;28319;48.116;10.818;2022-12-24T11:36:05;9.30;99.90
41985;DHT22;28319;48.116;10.818;2022-12-24T11:41:11;9.20;99.90
41985;DHT22;28319;48.116;10.818;2022-12-24T11:46:19;9.40;99.90
41985;DHT22;28319;48.116;10.818;2022-12-24T11:51:23;9.80;99.90
41985;DHT22;28319;48.116;10.818;2022-12-24T11:56:34;9.90;99.90
41985;DHT22;28319;48.116;10.818;2022-12-24T12:01:41;9.70;99.90
41985;DHT22;28319;48.116;10.818;2022-12-24T12:06:49;9.60;99.90
41985;DHT22;28319;48.116;10.818;2022-12-24T12:12:00;9.70;99.90
41985;DHT22;28319;48.116;10.818;2022-12-24T12:17:09;9.80;99.90
41985;DHT22;28319;48.116;10.818;2022-12-24T12:22:21;9.70;99.90
41985;DHT22;28319;48.116;10.818;2022-12-24T12:27:32;9.70;99.90
41985;DHT22;28319;48.116;10.818;2022-12-24T12:32:41;9.60;99.90
41985;DHT22;28319;48.116;10.818;2022-12-24T12:37:53;9.40;99.90
41985;DHT22;28319;48.116;10.818;2022-12-24T12:43:05;9.30;99.90
41985;DHT22;28319;48.116;10.818;2022-12-24T12:48:38;9.30;99.90
41985;DHT22;28319;48.116;10.818;2022-12-24T12:54:03;9.20;99.90
41985;DHT22;28319;48.116;10.818;2022-12-24T12:59:14;9.10;99.90
41985;DHT22;28319;48.116;10.818;2022-12-24T13:04:48;9.00;99.90
41985;DHT22;28319;48.116;10.818;2022-12-24T13:15:58;9.00;99.90
41985;DHT22;28319;48.116;10.818;2022-12-24T13:21:04;9.00;99.90
41985;DHT22;28319;48.116;10.818;2022-12-24T13:26:11;9.00;99.90
41985;DHT22;28319;48.116;10.818;2022-12-24T13:31:26;9.00;99.90
41985;DHT22;28319;48.116;10.818;2022-12-24T13:37:00;9.10;99.90
41985;DHT22;28319;48.116;10.818;2022-12-24T13:42:03;9.00;99.90
41985;DHT22;28319;48.116;10.818;2022-12-24T13:47:27;9.10;99.90
41985;DHT22;28319;48.116;10.818;2022-12-24T13:52:30;9.20;99.90
41985;DHT22;28319;48.116;10.818;2022-12-24T13:57:36;9.50;99.90
41985;DHT22;28319;48.116;10.818;2022-12-24T14:02:49;9.50;99.90
41985;DHT22;28319;48.116;10.818;2022-12-24T14:07:52;9.50;99.90
41985;DHT22;28319;48.116;10.818;2022-12-24T14:12:56;9.40;99.90
41985;DHT22;28319;48.116;10.818;2022-12-24T14:18:00;9.30;99.90
41985;DHT22;28319;48.116;10.818;2022-12-24T14:23:03;9.20;99.90
41985;DHT22;28319;48.116;10.818;2022-12-24T14:28:14;9.10;99.90
41985;DHT22;28319;48.116;10.818;2022-12-24T14:33:29;9.00;99.90
41985;DHT22;28319;48.116;10.818;2022-12-24T14:38:32;8.90;99.90
41985;DHT22;28319;48.116;10.818;2022-12-24T14:43:50;8.90;99.90
41985;DHT22;28319;48.116;10.818;2022-12-24T14:48:56;8.90;99.90
41985;DHT22;28319;48.116;10.818;2022-12-24T14:54:14;8.80;99.90
41985;DHT22;28319;48.116;10.818;2022-12-24T14:59:19;8.70;99.90
41985;DHT22;28319;48.116;10.818;2022-12-24T15:04:22;8.60;99.90
41985;DHT22;28319;48.116;10.818;2022-12-24T15:09:27;8.60;99.90
41985;DHT22;28319;48.116;10.818;2022-12-24T15:14:37;8.50;99.90
41985;DHT22;28319;48.116;10.818;2022-12-24T15:19:43;8.40;99.90
41985;DHT22;28319;48.116;10.818;2022-12-24T15:24:48;8.30;99.90
41985;DHT22;28319;48.116;10.818;2022-12-24T15:29:52;8.30;99.90
41985;DHT22;28319;48.116;10.818;2022-12-24T15:34:56;8.20;99.90
41985;DHT22;28319;48.116;10.818;2022-12-24T15:40:04;8.20;99.90
41985;DHT22;28319;48.116;10.818;2022-12-24T15:45:13;8.20;99.90
41985;DHT22;28319;48.116;10.818;2022-12-24T15:50:22;8.20;99.90
41985;DHT22;28319;48.116;10.818;2022-12-24T15:55:27;8.20;99.90
41985;DHT22;28319;48.116;10.818;2022-12-24T16:00:30;8.20;99.90
41985;DHT22;28319;48.116;10.818;2022-12-24T16:05:36;8.20;99.90
41985;DHT22;28319;48.116;10.818;2022-12-24T16:10:40;8.20;99.90
41985;DHT22;28319;48.116;10.818;2022-12-24T16:15:47;8.20;99.90
41985;DHT22;28319;48.116;10.818;2022-12-24T16:20:52;8.10;99.90
41985;DHT22;28319;48.116;10.818;2022-12-24T16:25:57;8.00;99.90
41985;DHT22;28319;48.116;10.818;2022-12-24T16:31:00;8.00;99.90
41985;DHT22;28319;48.116;10.818;2022-12-24T16:36:04;8.00;99.90
41985;DHT22;28319;48.116;10.818;2022-12-24T16:41:07;8.00;99.90
41985;DHT22;28319;48.116;10.818;2022-12-24T16:46:12;7.90;99.90
41985;DHT22;28319;48.116;10.818;2022-12-24T16:51:15;7.90;99.90
41985;DHT22;28319;48.116;10.818;2022-12-24T16:56:17;7.90;99.90
41985;DHT22;28319;48.116;10.818;2022-12-24T17:01:19;7.90;99.90
41985;DHT22;28319;48.116;10.818;2022-12-24T17:06:23;7.90;99.90
41985;DHT22;28319;48.116;10.818;2022-12-24T17:11:25;7.90;99.90
41985;DHT22;28319;48.116;10.818;2022-12-24T17:16:27;7.80;99.90
41985;DHT22;28319;48.116;10.818;2022-12-24T17:21:31;7.80;99.90
41985;DHT22;28319;48.116;10.818;2022-12-24T17:26:33;7.80;99.90
41985;DHT22;28319;48.116;10.818;2022-12-24T17:31:36;7.80;99.90
41985;DHT22;28319;48.116;10.818;2022-12-24T17:36:41;7.80;99.90
41985;DHT22;28319;48.116;10.818;2022-12-24T17:41:43;7.90;99.90
41985;DHT22;28319;48.116;10.818;2022-12-24T17:46:47;7.90;99.90
41985;DHT22;28319;48.116;10.818;2022-12-24T17:51:51;7.90;99.90
41985;DHT22;28319;48.116;10.818;2022-12-24T17:56:53;7.90;99.90
41985;DHT22;28319;48.116;10.818;2022-12-24T18:01:55;7.90;99.90
41985;DHT22;28319;48.116;10.818;2022-12-24T18:06:59;7.90;99.90
41985;DHT22;28319;48.116;10.818;2022-12-24T18:12:02;8.00;99.90
41985;DHT22;28319;48.116;10.818;2022-12-24T18:17:04;8.00;99.90
41985;DHT22;28319;48.116;10.818;2022-12-24T18:22:08;8.00;99.90
41985;DHT22;28319;48.116;10.818;2022-12-24T18:27:10;7.90;99.90
41985;DHT22;28319;48.116;10.818;2022-12-24T18:32:12;7.90;99.90
41985;DHT22;28319;48.116;10.818;2022-12-24T18:37:17;7.90;99.90
41985;DHT22;28319;48.116;10.818;2022-12-24T18:42:19;7.90;99.90
41985;DHT22;28319;48.116;10.818;2022-12-24T18:47:22;7.90;99.90
41985;DHT22;28319;48.116;10.818;2022-12-24T18:52:25;7.80;99.90
41985;DHT22;28319;48.116;10.818;2022-12-24T18:57:31;7.90;99.90
41985;DHT22;28319;48.116;10.818;2022-12-24T19:02:33;7.90;99.90
41985;DHT22;28319;48.116;10.818;2022-12-24T19:07:37;7.80;99.90
41985;DHT22;28319;48.116;10.818;2022-12-24T19:12:39;7.80;99.90
41985;DHT22;28319;48.116;10.818;2022-12-24T19:17:41;7.80;99.90
41985;DHT22;28319;48.116;10.818;2022-12-24T19:22:45;7.90;99.90
41985;DHT22;28319;48.116;10.818;2022-12-24T19:27:47;8.00;99.90
41985;DHT22;28319;48.116;10.818;2022-12-24T19:32:49;8.00;99.90
41985;DHT22;28319;48.116;10.818;2022-12-24T19:37:53;7.90;99.90
41985;DHT22;28319;48.116;10.818;2022-12-24T19:42:55;7.90;99.90
41985;DHT22;28319;48.116;10.818;2022-12-24T19:47:57;7.80;99.90
41985;DHT22;28319;48.116;10.818;2022-12-24T19:53:01;7.80;99.90
41985;DHT22;28319;48.116;10.818;2022-12-24T19:58:03;7.80;99.90
41985;DHT22;28319;48.116;10.818;2022-12-24T20:03:05;7.80;99.90
41985;DHT22;28319;48.116;10.818;2022-12-24T20:08:09;7.80;99.90
41985;DHT22;28319;48.116;10.818;2022-12-24T20:13:11;7.80;99.90
41985;DHT22;28319;48.116;10.818;2022-12-24T20:18:13;7.70;99.90
41985;DHT22;28319;48.116;10.818;2022-12-24T20:23:17;7.70;99.90
41985;DHT22;28319;48.116;10.818;2022-12-24T20:28:19;7.80;99.90
41985;DHT22;28319;48.116;10.818;2022-12-24T20:33:21;7.80;99.90
41985;DHT22;28319;48.116;10.818;2022-12-24T20:38:25;7.80;99.90
41985;DHT22;28319;48.116;10.818;2022-12-24T20:43:27;7.90;99.90
41985;DHT22;28319;48.116;10.818;2022-12-24T20:48:29;7.80;99.90
41985;DHT22;28319;48.116;10.818;2022-12-24T20:53:33;7.90;99.90
41985;DHT22;28319;48.116;10.818;2022-12-24T20:58:35;7.80;99.90
41985;DHT22;28319;48.116;10.818;2022-12-24T21:03:37;7.80;99.90
41985;DHT22;28319;48.116;10.818;2022-12-24T21:08:40;7.90;99.90
41985;DHT22;28319;48.116;10.818;2022-12-24T21:13:42;7.70;99.90
41985;DHT22;28319;48.116;10.818;2022-12-24T21:18:45;7.70;99.90
41985;DHT22;28319;48.116;10.818;2022-12-24T21:23:51;7.80;99.90
41985;DHT22;28319;48.116;10.818;2022-12-24T21:28:53;7.70;99.90
41985;DHT22;28319;48.116;10.818;2022-12-24T21:33:55;7.70;99.90
41985;DHT22;28319;48.116;10.818;2022-12-24T21:38:59;7.60;99.90
41985;DHT22;28319;48.116;10.818;2022-12-24T21:44:01;7.60;99.90
41985;DHT22;28319;48.116;10.818;2022-12-24T21:49:03;7.60;99.90
41985;DHT22;28319;48.116;10.818;2022-12-24T21:54:24;7.50;99.90
41985;DHT22;28319;48.116;10.818;2022-12-24T21:59:40;7.50;99.90
41985;DHT22;28319;48.116;10.818;2022-12-24T22:04:42;7.50;99.90
41985;DHT22;28319;48.116;10.818;2022-12-24T22:09:46;7.60;99.90
41985;DHT22;28319;48.116;10.818;2022-12-24T22:15:06;7.60;99.90
41985;DHT22;28319;48.116;10.818;2022-12-24T22:20:09;7.60;99.90
41985;DHT22;28319;48.116;10.818;2022-12-24T22:25:13;7.60;99.90
41985;DHT22;28319;48.116;10.818;2022-12-24T22:30:16;7.60;99.90
41985;DHT22;28319;48.116;10.818;2022-12-24T22:35:18;7.60;99.90
41985;DHT22;28319;48.116;10.818;2022-12-24T22:40:21;7.60;99.90
41985;DHT22;28319;48.116;10.818;2022-12-24T22:45:23;7.60;99.90
41985;DHT22;28319;48.116;10.818;2022-12-24T22:50:26;7.60;99.90
41985;DHT22;28319;48.116;10.818;2022-12-24T22:55:29;7.50;99.90
41985;DHT22;28319;48.116;10.818;2022-12-24T23:00:40;7.60;99.90
41985;DHT22;28319;48.116;10.818;2022-12-24T23:05:43;7.60;99.90
41985;DHT22;28319;48.116;10.818;2022-12-24T23:10:46;7.60;99.90
41985;DHT22;28319;48.116;10.818;2022-12-24T23:15:49;7.60;99.90
41985;DHT22;28319;48.116;10.818;2022-12-24T23:20:51;7.70;99.90
41985;DHT22;28319;48.116;10.818;2022-12-24T23:26:02;7.70;99.90
41985;DHT22;28319;48.116;10.818;2022-12-24T23:31:05;7.80;99.90
41985;DHT22;28319;48.116;10.818;2022-12-24T23:36:08;7.80;99.90
41985;DHT22;28319;48.116;10.818;2022-12-24T23:41:12;7.80;99.90
41985;DHT22;28319;48.116;10.818;2022-12-24T23:46:18;7.70;99.90
41985;DHT22;28319;48.116;10.818;2022-12-24T23:51:24;7.80;99.90
41985;DHT22;28319;48.116;10.818;2022-12-24T23:56:28;7.70;99.90
